sensor_id;sensor_type;location;lat;lon;timestamp;temperature;humidity
25328;DHT22;13279;51.300;12.394;2024-03-02T00:01:42;6.80;99.90
25328;DHT22;13279;51.300;12.394;2024-03-02T00:04:09;6.80;99.90
25328;DHT22;13279;51.300;12.394;2024-03-02T00:06:37;6.80;99.90
25328;DHT22;13279;51.300;12.394;2024-03-02T00:09:04;6.80;99.90
25328;DHT22;13279;51.300;12.394;2024-03-02T00:11:35;6.80;99.90
25328;DHT22;13279;51.300;12.394;2024-03-02T00:14:03;6.80;99.90
25328;DHT22;13279;51.300;12.394;2024-03-02T00:16:31;6.80;99.90
25328;DHT22;13279;51.300;12.394;2024-03-02T00:19:03;6.80;99.90
25328;DHT22;13279;51.300;12.394;2024-03-02T00:21:32;6.80;99.90
25328;DHT22;13279;51.300;12.394;2024-03-02T00:24:00;6.70;99.90
25328;DHT22;13279;51.300;12.394;2024-03-02T00:26:29;6.70;99.90
25328;DHT22;13279;51.300;12.394;2024-03-02T00:28:56;6.70;99.90
25328;DHT22;13279;51.300;12.394;2024-03-02T00:31:24;6.70;99.90
25328;DHT22;13279;51.300;12.394;2024-03-02T00:33:51;6.70;99.90
25328;DHT22;13279;51.300;12.394;2024-03-02T00:36:25;6.70;99.90
25328;DHT22;13279;51.300;12.394;2024-03-02T00:38:54;6.70;99.90
25328;DHT22;13279;51.300;12.394;2024-03-02T00:41:24;6.70;99.90
25328;DHT22;13279;51.300;12.394;2024-03-02T00:43:58;6.70;99.90
25328;DHT22;13279;51.300;12.394;2024-03-02T00:46:27;6.80;99.90
25328;DHT22;13279;51.300;12.394;2024-03-02T00:48:58;6.80;99.90
25328;DHT22;13279;51.300;12.394;2024-03-02T00:51:28;6.80;99.90
25328;DHT22;13279;51.300;12.394;2024-03-02T00:53:59;6.70;99.90
25328;DHT22;13279;51.300;12.394;2024-03-02T00:56:27;6.70;99.90
25328;DHT22;13279;51.300;12.394;2024-03-02T00:58:54;6.70;99.90
25328;DHT22;13279;51.300;12.394;2024-03-02T01:01:22;6.70;99.90
25328;DHT22;13279;51.300;12.394;2024-03-02T01:03:49;6.70;99.90
25328;DHT22;13279;51.300;12.394;2024-03-02T01:06:17;6.80;99.90
25328;DHT22;13279;51.300;12.394;2024-03-02T01:08:46;6.80;99.90
25328;DHT22;13279;51.300;12.394;2024-03-02T01:11:17;6.70;99.90
25328;DHT22;13279;51.300;12.394;2024-03-02T01:13:45;6.70;99.90
25328;DHT22;13279;51.300;12.394;2024-03-02T01:16:13;6.70;99.90
25328;DHT22;13279;51.300;12.394;2024-03-02T01:18:41;6.70;99.90
25328;DHT22;13279;51.300;12.394;2024-03-02T01:21:09;6.70;99.90
25328;DHT22;13279;51.300;12.394;2024-03-02T01:23:36;6.70;99.90
25328;DHT22;13279;51.300;12.394;2024-03-02T01:26:05;6.60;99.90
25328;DHT22;13279;51.300;12.394;2024-03-02T01:28:33;6.60;99.90
25328;DHT22;13279;51.300;12.394;2024-03-02T01:31:00;6.60;99.90
25328;DHT22;13279;51.300;12.394;2024-03-02T01:33:28;6.70;99.90
25328;DHT22;13279;51.300;12.394;2024-03-02T01:35:57;6.60;99.90
25328;DHT22;13279;51.300;12.394;2024-03-02T01:38:24;6.60;99.90
25328;DHT22;13279;51.300;12.394;2024-03-02T01:40:52;6.60;99.90
25328;DHT22;13279;51.300;12.394;2024-03-02T01:43:22;6.70;99.90
25328;DHT22;13279;51.300;12.394;2024-03-02T01:45:49;6.60;99.90
25328;DHT22;13279;51.300;12.394;2024-03-02T01:48:16;6.60;99.90
25328;DHT22;13279;51.300;12.394;2024-03-02T01:50:45;6.60;99.90
25328;DHT22;13279;51.300;12.394;2024-03-02T01:53:12;6.60;99.90
25328;DHT22;13279;51.300;12.394;2024-03-02T01:55:40;6.60;99.90
25328;DHT22;13279;51.300;12.394;2024-03-02T01:58:07;6.60;99.90
25328;DHT22;13279;51.300;12.394;2024-03-02T02:00:36;6.60;99.90
25328;DHT22;13279;51.300;12.394;2024-03-02T02:03:04;6.60;99.90
25328;DHT22;13279;51.300;12.394;2024-03-02T02:05:33;6.60;99.90
25328;DHT22;13279;51.300;12.394;2024-03-02T02:08:01;6.60;99.90
25328;DHT22;13279;51.300;12.394;2024-03-02T02:10:29;6.60;99.90
25328;DHT22;13279;51.300;12.394;2024-03-02T02:12:56;6.60;99.90
25328;DHT22;13279;51.300;12.394;2024-03-02T02:15:24;6.60;99.90
25328;DHT22;13279;51.300;12.394;2024-03-02T02:17:53;6.60;99.90
25328;DHT22;13279;51.300;12.394;2024-03-02T02:20:21;6.60;99.90
25328;DHT22;13279;51.300;12.394;2024-03-02T02:22:58;6.60;99.90
25328;DHT22;13279;51.300;12.394;2024-03-02T02:25:25;6.60;99.90
25328;DHT22;13279;51.300;12.394;2024-03-02T02:27:53;6.70;99.90
25328;DHT22;13279;51.300;12.394;2024-03-02T02:30:23;6.70;99.90
25328;DHT22;13279;51.300;12.394;2024-03-02T02:32:50;6.70;99.90
25328;DHT22;13279;51.300;12.394;2024-03-02T02:35:18;6.70;99.90
25328;DHT22;13279;51.300;12.394;2024-03-02T02:37:44;6.70;99.90
25328;DHT22;13279;51.300;12.394;2024-03-02T02:40:14;6.80;99.90
25328;DHT22;13279;51.300;12.394;2024-03-02T02:42:41;6.80;99.90
25328;DHT22;13279;51.300;12.394;2024-03-02T02:45:09;6.80;99.90
25328;DHT22;13279;51.300;12.394;2024-03-02T02:47:36;6.80;99.90
25328;DHT22;13279;51.300;12.394;2024-03-02T02:50:06;6.80;99.90
25328;DHT22;13279;51.300;12.394;2024-03-02T02:52:34;6.80;99.90
25328;DHT22;13279;51.300;12.394;2024-03-02T02:55:03;6.80;99.90
25328;DHT22;13279;51.300;12.394;2024-03-02T02:57:33;6.80;99.90
25328;DHT22;13279;51.300;12.394;2024-03-02T03:00:05;6.70;99.90
25328;DHT22;13279;51.300;12.394;2024-03-02T03:02:37;6.70;99.90
25328;DHT22;13279;51.300;12.394;2024-03-02T03:05:06;6.70;99.90
25328;DHT22;13279;51.300;12.394;2024-03-02T03:07:34;6.70;99.90
25328;DHT22;13279;51.300;12.394;2024-03-02T03:10:03;6.70;99.90
25328;DHT22;13279;51.300;12.394;2024-03-02T03:12:34;6.70;99.90
25328;DHT22;13279;51.300;12.394;2024-03-02T03:15:02;6.70;99.90
25328;DHT22;13279;51.300;12.394;2024-03-02T03:17:30;6.70;99.90
25328;DHT22;13279;51.300;12.394;2024-03-02T03:19:58;6.70;99.90
25328;DHT22;13279;51.300;12.394;2024-03-02T03:22:25;6.70;99.90
25328;DHT22;13279;51.300;12.394;2024-03-02T03:24:52;6.70;99.90
25328;DHT22;13279;51.300;12.394;2024-03-02T03:27:20;6.70;99.90
25328;DHT22;13279;51.300;12.394;2024-03-02T03:29:49;6.70;99.90
25328;DHT22;13279;51.300;12.394;2024-03-02T03:32:16;6.70;99.90
25328;DHT22;13279;51.300;12.394;2024-03-02T03:34:43;6.70;99.90
25328;DHT22;13279;51.300;12.394;2024-03-02T03:37:11;6.70;99.90
25328;DHT22;13279;51.300;12.394;2024-03-02T03:39:39;6.70;99.90
25328;DHT22;13279;51.300;12.394;2024-03-02T03:42:06;6.70;99.90
25328;DHT22;13279;51.300;12.394;2024-03-02T03:44:34;6.70;99.90
25328;DHT22;13279;51.300;12.394;2024-03-02T03:47:03;6.70;99.90
25328;DHT22;13279;51.300;12.394;2024-03-02T03:49:30;6.70;99.90
25328;DHT22;13279;51.300;12.394;2024-03-02T03:51:58;6.70;99.90
25328;DHT22;13279;51.300;12.394;2024-03-02T03:54:25;6.70;99.90
25328;DHT22;13279;51.300;12.394;2024-03-02T03:56:52;6.70;99.90
25328;DHT22;13279;51.300;12.394;2024-03-02T03:59:19;6.70;99.90
25328;DHT22;13279;51.300;12.394;2024-03-02T04:01:47;6.70;99.90
25328;DHT22;13279;51.300;12.394;2024-03-02T04:04:15;6.70;99.90
25328;DHT22;13279;51.300;12.394;2024-03-02T04:06:43;6.60;99.90
25328;DHT22;13279;51.300;12.394;2024-03-02T04:09:10;6.60;99.90
25328;DHT22;13279;51.300;12.394;2024-03-02T04:11:38;6.60;99.90
25328;DHT22;13279;51.300;12.394;2024-03-02T04:14:05;6.50;99.90
25328;DHT22;13279;51.300;12.394;2024-03-02T04:16:33;6.60;99.90
25328;DHT22;13279;51.300;12.394;2024-03-02T04:19:00;6.60;99.90
25328;DHT22;13279;51.300;12.394;2024-03-02T04:21:29;6.60;99.90
25328;DHT22;13279;51.300;12.394;2024-03-02T04:23:56;6.60;99.90
25328;DHT22;13279;51.300;12.394;2024-03-02T04:26:25;6.60;99.90
25328;DHT22;13279;51.300;12.394;2024-03-02T04:28:52;6.60;99.90
25328;DHT22;13279;51.300;12.394;2024-03-02T04:31:20;6.60;99.90
25328;DHT22;13279;51.300;12.394;2024-03-02T04:33:47;6.60;99.90
25328;DHT22;13279;51.300;12.394;2024-03-02T04:36:15;6.60;99.90
25328;DHT22;13279;51.300;12.394;2024-03-02T04:38:43;6.60;99.90
25328;DHT22;13279;51.300;12.394;2024-03-02T04:41:11;6.60;99.90
25328;DHT22;13279;51.300;12.394;2024-03-02T04:43:38;6.60;99.90
25328;DHT22;13279;51.300;12.394;2024-03-02T04:46:06;6.60;99.90
25328;DHT22;13279;51.300;12.394;2024-03-02T04:48:34;6.60;99.90
25328;DHT22;13279;51.300;12.394;2024-03-02T04:51:01;6.60;99.90
25328;DHT22;13279;51.300;12.394;2024-03-02T04:53:28;6.60;99.90
25328;DHT22;13279;51.300;12.394;2024-03-02T04:55:57;6.60;99.90
25328;DHT22;13279;51.300;12.394;2024-03-02T04:58:46;6.60;99.90
25328;DHT22;13279;51.300;12.394;2024-03-02T05:01:13;6.60;99.90
25328;DHT22;13279;51.300;12.394;2024-03-02T05:03:42;6.60;99.90
25328;DHT22;13279;51.300;12.394;2024-03-02T05:06:11;6.60;99.90
25328;DHT22;13279;51.300;12.394;2024-03-02T05:08:39;6.60;99.90
25328;DHT22;13279;51.300;12.394;2024-03-02T05:11:07;6.60;99.90
25328;DHT22;13279;51.300;12.394;2024-03-02T05:13:52;6.60;99.90
25328;DHT22;13279;51.300;12.394;2024-03-02T05:16:19;6.60;99.90
25328;DHT22;13279;51.300;12.394;2024-03-02T05:18:47;6.60;99.90
25328;DHT22;13279;51.300;12.394;2024-03-02T05:21:14;6.60;99.90
25328;DHT22;13279;51.300;12.394;2024-03-02T05:23:42;6.60;99.90
25328;DHT22;13279;51.300;12.394;2024-03-02T05:26:11;6.60;99.90
25328;DHT22;13279;51.300;12.394;2024-03-02T05:28:39;6.60;99.90
25328;DHT22;13279;51.300;12.394;2024-03-02T05:31:06;6.60;99.90
25328;DHT22;13279;51.300;12.394;2024-03-02T05:33:38;6.60;99.90
25328;DHT22;13279;51.300;12.394;2024-03-02T05:36:05;6.60;99.90
25328;DHT22;13279;51.300;12.394;2024-03-02T05:38:34;6.60;99.90
25328;DHT22;13279;51.300;12.394;2024-03-02T05:41:02;6.60;99.90
25328;DHT22;13279;51.300;12.394;2024-03-02T05:43:31;6.60;99.90
25328;DHT22;13279;51.300;12.394;2024-03-02T05:45:58;6.60;99.90
25328;DHT22;13279;51.300;12.394;2024-03-02T05:48:25;6.60;99.90
25328;DHT22;13279;51.300;12.394;2024-03-02T05:50:53;6.60;99.90
25328;DHT22;13279;51.300;12.394;2024-03-02T05:53:20;6.70;99.90
25328;DHT22;13279;51.300;12.394;2024-03-02T05:55:47;6.70;99.90
25328;DHT22;13279;51.300;12.394;2024-03-02T05:58:19;6.70;99.90
25328;DHT22;13279;51.300;12.394;2024-03-02T06:01:00;6.70;99.90
25328;DHT22;13279;51.300;12.394;2024-03-02T06:03:27;6.70;99.90
25328;DHT22;13279;51.300;12.394;2024-03-02T06:05:55;6.70;99.90
25328;DHT22;13279;51.300;12.394;2024-03-02T06:08:22;6.70;99.90
25328;DHT22;13279;51.300;12.394;2024-03-02T06:10:49;6.70;99.90
25328;DHT22;13279;51.300;12.394;2024-03-02T06:13:17;6.70;99.90
25328;DHT22;13279;51.300;12.394;2024-03-02T06:15:45;6.80;99.90
25328;DHT22;13279;51.300;12.394;2024-03-02T06:18:13;6.80;99.90
25328;DHT22;13279;51.300;12.394;2024-03-02T06:20:41;6.80;99.90
25328;DHT22;13279;51.300;12.394;2024-03-02T06:23:08;6.80;99.90
25328;DHT22;13279;51.300;12.394;2024-03-02T06:25:36;6.90;99.90
25328;DHT22;13279;51.300;12.394;2024-03-02T06:28:04;6.90;99.90
25328;DHT22;13279;51.300;12.394;2024-03-02T06:30:31;6.90;99.90
25328;DHT22;13279;51.300;12.394;2024-03-02T06:32:59;6.90;99.90
25328;DHT22;13279;51.300;12.394;2024-03-02T06:35:28;6.90;99.90
25328;DHT22;13279;51.300;12.394;2024-03-02T06:37:55;7.00;99.90
25328;DHT22;13279;51.300;12.394;2024-03-02T06:40:23;7.00;99.90
25328;DHT22;13279;51.300;12.394;2024-03-02T06:42:50;7.00;99.90
25328;DHT22;13279;51.300;12.394;2024-03-02T06:45:18;7.10;99.90
25328;DHT22;13279;51.300;12.394;2024-03-02T06:47:45;7.10;99.90
25328;DHT22;13279;51.300;12.394;2024-03-02T06:50:13;7.10;99.90
25328;DHT22;13279;51.300;12.394;2024-03-02T06:52:41;7.10;99.90
25328;DHT22;13279;51.300;12.394;2024-03-02T06:55:09;7.10;99.90
25328;DHT22;13279;51.300;12.394;2024-03-02T06:57:36;7.20;99.90
25328;DHT22;13279;51.300;12.394;2024-03-02T07:00:05;7.20;99.90
25328;DHT22;13279;51.300;12.394;2024-03-02T07:02:35;7.20;99.90
25328;DHT22;13279;51.300;12.394;2024-03-02T07:05:03;7.20;99.90
25328;DHT22;13279;51.300;12.394;2024-03-02T07:07:33;7.20;99.90
25328;DHT22;13279;51.300;12.394;2024-03-02T07:10:02;7.30;99.90
25328;DHT22;13279;51.300;12.394;2024-03-02T07:12:29;7.30;99.90
25328;DHT22;13279;51.300;12.394;2024-03-02T07:14:57;7.30;99.90
25328;DHT22;13279;51.300;12.394;2024-03-02T07:17:44;7.40;99.90
25328;DHT22;13279;51.300;12.394;2024-03-02T07:20:11;7.40;99.90
25328;DHT22;13279;51.300;12.394;2024-03-02T07:22:39;7.40;99.90
25328;DHT22;13279;51.300;12.394;2024-03-02T07:25:08;7.50;99.90
25328;DHT22;13279;51.300;12.394;2024-03-02T07:27:36;7.50;99.90
25328;DHT22;13279;51.300;12.394;2024-03-02T07:30:03;7.50;99.90
25328;DHT22;13279;51.300;12.394;2024-03-02T07:32:30;7.60;99.90
25328;DHT22;13279;51.300;12.394;2024-03-02T07:34:57;7.60;99.90
25328;DHT22;13279;51.300;12.394;2024-03-02T07:37:25;7.60;99.90
25328;DHT22;13279;51.300;12.394;2024-03-02T07:39:52;7.60;99.90
25328;DHT22;13279;51.300;12.394;2024-03-02T07:42:21;7.70;99.90
25328;DHT22;13279;51.300;12.394;2024-03-02T07:44:49;7.70;99.90
25328;DHT22;13279;51.300;12.394;2024-03-02T07:47:16;7.70;99.90
25328;DHT22;13279;51.300;12.394;2024-03-02T07:49:44;7.80;99.90
25328;DHT22;13279;51.300;12.394;2024-03-02T07:52:12;7.80;99.90
25328;DHT22;13279;51.300;12.394;2024-03-02T07:54:39;7.90;99.90
25328;DHT22;13279;51.300;12.394;2024-03-02T07:57:07;7.90;99.90
25328;DHT22;13279;51.300;12.394;2024-03-02T07:59:35;7.90;99.90
25328;DHT22;13279;51.300;12.394;2024-03-02T08:02:04;8.00;99.90
25328;DHT22;13279;51.300;12.394;2024-03-02T08:04:31;8.00;99.90
25328;DHT22;13279;51.300;12.394;2024-03-02T08:06:58;8.10;99.90
25328;DHT22;13279;51.300;12.394;2024-03-02T08:09:26;8.10;99.90
25328;DHT22;13279;51.300;12.394;2024-03-02T08:11:53;8.20;99.90
25328;DHT22;13279;51.300;12.394;2024-03-02T08:14:22;8.20;99.90
25328;DHT22;13279;51.300;12.394;2024-03-02T08:16:51;8.20;99.90
25328;DHT22;13279;51.300;12.394;2024-03-02T08:19:18;8.30;99.90
25328;DHT22;13279;51.300;12.394;2024-03-02T08:21:46;8.30;99.90
25328;DHT22;13279;51.300;12.394;2024-03-02T08:24:13;8.40;99.90
25328;DHT22;13279;51.300;12.394;2024-03-02T08:26:41;8.40;99.90
25328;DHT22;13279;51.300;12.394;2024-03-02T08:29:08;8.50;99.90
25328;DHT22;13279;51.300;12.394;2024-03-02T08:31:36;8.50;99.90
25328;DHT22;13279;51.300;12.394;2024-03-02T08:34:04;8.50;99.90
25328;DHT22;13279;51.300;12.394;2024-03-02T08:36:32;8.60;99.90
25328;DHT22;13279;51.300;12.394;2024-03-02T08:38:59;8.60;99.90
25328;DHT22;13279;51.300;12.394;2024-03-02T08:41:26;8.70;99.90
25328;DHT22;13279;51.300;12.394;2024-03-02T08:43:54;8.70;99.90
25328;DHT22;13279;51.300;12.394;2024-03-02T08:46:21;8.70;99.90
25328;DHT22;13279;51.300;12.394;2024-03-02T08:48:48;8.80;99.90
25328;DHT22;13279;51.300;12.394;2024-03-02T08:51:18;8.90;99.90
25328;DHT22;13279;51.300;12.394;2024-03-02T08:53:45;9.00;99.90
25328;DHT22;13279;51.300;12.394;2024-03-02T08:56:12;9.10;99.90
25328;DHT22;13279;51.300;12.394;2024-03-02T08:58:41;9.10;99.90
25328;DHT22;13279;51.300;12.394;2024-03-02T09:01:10;9.20;99.90
25328;DHT22;13279;51.300;12.394;2024-03-02T09:03:38;9.30;99.90
25328;DHT22;13279;51.300;12.394;2024-03-02T09:06:05;9.40;99.90
25328;DHT22;13279;51.300;12.394;2024-03-02T09:08:34;9.40;99.90
25328;DHT22;13279;51.300;12.394;2024-03-02T09:11:03;9.60;99.90
25328;DHT22;13279;51.300;12.394;2024-03-02T09:13:30;9.60;99.90
25328;DHT22;13279;51.300;12.394;2024-03-02T09:15:58;9.70;99.90
25328;DHT22;13279;51.300;12.394;2024-03-02T09:18:25;9.70;99.90
25328;DHT22;13279;51.300;12.394;2024-03-02T09:20:52;9.90;99.90
25328;DHT22;13279;51.300;12.394;2024-03-02T09:23:21;10.00;99.90
25328;DHT22;13279;51.300;12.394;2024-03-02T09:25:50;10.10;99.90
25328;DHT22;13279;51.300;12.394;2024-03-02T09:28:17;10.10;99.90
25328;DHT22;13279;51.300;12.394;2024-03-02T09:30:45;10.20;99.90
25328;DHT22;13279;51.300;12.394;2024-03-02T09:33:12;10.20;99.90
25328;DHT22;13279;51.300;12.394;2024-03-02T09:35:39;10.20;99.90
25328;DHT22;13279;51.300;12.394;2024-03-02T09:38:07;10.10;99.90
25328;DHT22;13279;51.300;12.394;2024-03-02T09:40:34;10.20;99.90
25328;DHT22;13279;51.300;12.394;2024-03-02T09:43:03;10.30;99.90
25328;DHT22;13279;51.300;12.394;2024-03-02T09:45:31;10.30;99.90
25328;DHT22;13279;51.300;12.394;2024-03-02T09:47:58;10.30;99.90
25328;DHT22;13279;51.300;12.394;2024-03-02T09:50:26;10.30;99.90
25328;DHT22;13279;51.300;12.394;2024-03-02T09:52:53;10.30;99.90
25328;DHT22;13279;51.300;12.394;2024-03-02T09:55:21;10.30;99.90
25328;DHT22;13279;51.300;12.394;2024-03-02T09:57:49;10.30;99.90
25328;DHT22;13279;51.300;12.394;2024-03-02T10:00:18;10.40;99.90
25328;DHT22;13279;51.300;12.394;2024-03-02T10:02:46;10.50;99.90
25328;DHT22;13279;51.300;12.394;2024-03-02T10:05:24;10.50;99.90
25328;DHT22;13279;51.300;12.394;2024-03-02T10:07:59;10.60;99.90
25328;DHT22;13279;51.300;12.394;2024-03-02T10:10:35;10.70;99.90
25328;DHT22;13279;51.300;12.394;2024-03-02T10:13:06;10.80;99.90
25328;DHT22;13279;51.300;12.394;2024-03-02T10:15:37;10.90;99.90
25328;DHT22;13279;51.300;12.394;2024-03-02T10:18:08;11.00;99.90
25328;DHT22;13279;51.300;12.394;2024-03-02T10:20:37;11.10;99.90
25328;DHT22;13279;51.300;12.394;2024-03-02T10:23:11;11.30;99.90
25328;DHT22;13279;51.300;12.394;2024-03-02T10:25:39;11.50;99.90
25328;DHT22;13279;51.300;12.394;2024-03-02T10:28:07;11.80;99.90
25328;DHT22;13279;51.300;12.394;2024-03-02T10:30:37;12.10;99.90
25328;DHT22;13279;51.300;12.394;2024-03-02T10:33:06;12.30;99.90
25328;DHT22;13279;51.300;12.394;2024-03-02T10:35:33;12.40;99.90
25328;DHT22;13279;51.300;12.394;2024-03-02T10:38:04;12.60;99.90
25328;DHT22;13279;51.300;12.394;2024-03-02T10:40:32;12.80;99.90
25328;DHT22;13279;51.300;12.394;2024-03-02T10:43:01;12.90;99.90
25328;DHT22;13279;51.300;12.394;2024-03-02T10:45:32;13.20;99.90
25328;DHT22;13279;51.300;12.394;2024-03-02T10:48:01;13.60;99.90
25328;DHT22;13279;51.300;12.394;2024-03-02T10:50:31;13.80;99.90
25328;DHT22;13279;51.300;12.394;2024-03-02T10:52:59;14.10;99.90
25328;DHT22;13279;51.300;12.394;2024-03-02T10:55:27;14.40;99.90
25328;DHT22;13279;51.300;12.394;2024-03-02T10:57:55;14.70;99.90
25328;DHT22;13279;51.300;12.394;2024-03-02T11:00:25;14.70;99.90
25328;DHT22;13279;51.300;12.394;2024-03-02T11:02:57;14.80;99.90
25328;DHT22;13279;51.300;12.394;2024-03-02T11:05:31;14.90;99.90
25328;DHT22;13279;51.300;12.394;2024-03-02T11:08:02;15.10;99.90
25328;DHT22;13279;51.300;12.394;2024-03-02T11:10:34;15.00;99.90
25328;DHT22;13279;51.300;12.394;2024-03-02T11:13:06;15.10;99.90
25328;DHT22;13279;51.300;12.394;2024-03-02T11:15:36;15.20;99.90
25328;DHT22;13279;51.300;12.394;2024-03-02T11:18:05;15.20;99.90
25328;DHT22;13279;51.300;12.394;2024-03-02T11:20:39;15.20;99.90
25328;DHT22;13279;51.300;12.394;2024-03-02T11:23:08;15.20;99.90
25328;DHT22;13279;51.300;12.394;2024-03-02T11:25:36;15.20;99.90
25328;DHT22;13279;51.300;12.394;2024-03-02T11:28:06;15.50;99.90
25328;DHT22;13279;51.300;12.394;2024-03-02T11:30:49;15.60;99.90
25328;DHT22;13279;51.300;12.394;2024-03-02T11:33:27;15.70;99.90
25328;DHT22;13279;51.300;12.394;2024-03-02T11:35:58;15.70;99.90
25328;DHT22;13279;51.300;12.394;2024-03-02T11:38:31;15.80;99.90
25328;DHT22;13279;51.300;12.394;2024-03-02T11:41:00;15.80;99.90
25328;DHT22;13279;51.300;12.394;2024-03-02T11:43:29;15.90;99.90
25328;DHT22;13279;51.300;12.394;2024-03-02T11:46:00;15.80;99.90
25328;DHT22;13279;51.300;12.394;2024-03-02T11:48:30;15.80;99.90
25328;DHT22;13279;51.300;12.394;2024-03-02T11:51:01;16.00;99.90
25328;DHT22;13279;51.300;12.394;2024-03-02T11:53:28;16.10;99.90
25328;DHT22;13279;51.300;12.394;2024-03-02T11:55:58;16.10;99.90
25328;DHT22;13279;51.300;12.394;2024-03-02T11:58:27;16.10;99.90
25328;DHT22;13279;51.300;12.394;2024-03-02T12:00:55;16.10;99.90
25328;DHT22;13279;51.300;12.394;2024-03-02T12:03:25;16.10;99.90
25328;DHT22;13279;51.300;12.394;2024-03-02T12:05:53;16.00;99.90
25328;DHT22;13279;51.300;12.394;2024-03-02T12:08:22;16.10;99.90
25328;DHT22;13279;51.300;12.394;2024-03-02T12:11:00;16.30;99.90
25328;DHT22;13279;51.300;12.394;2024-03-02T12:13:28;16.40;99.90
25328;DHT22;13279;51.300;12.394;2024-03-02T12:15:55;16.40;99.90
25328;DHT22;13279;51.300;12.394;2024-03-02T12:18:24;16.40;99.90
25328;DHT22;13279;51.300;12.394;2024-03-02T12:20:52;16.40;99.90
25328;DHT22;13279;51.300;12.394;2024-03-02T12:23:25;16.60;99.90
25328;DHT22;13279;51.300;12.394;2024-03-02T12:25:54;16.70;99.90
25328;DHT22;13279;51.300;12.394;2024-03-02T12:28:22;16.80;99.90
25328;DHT22;13279;51.300;12.394;2024-03-02T12:30:50;16.70;99.90
25328;DHT22;13279;51.300;12.394;2024-03-02T12:33:18;16.60;99.90
25328;DHT22;13279;51.300;12.394;2024-03-02T12:35:45;16.70;99.90
25328;DHT22;13279;51.300;12.394;2024-03-02T12:38:14;16.80;99.90
25328;DHT22;13279;51.300;12.394;2024-03-02T12:40:43;16.90;99.90
25328;DHT22;13279;51.300;12.394;2024-03-02T12:43:10;17.00;99.90
25328;DHT22;13279;51.300;12.394;2024-03-02T12:45:38;17.00;99.90
25328;DHT22;13279;51.300;12.394;2024-03-02T12:48:06;17.10;99.90
25328;DHT22;13279;51.300;12.394;2024-03-02T12:50:33;17.10;99.90
25328;DHT22;13279;51.300;12.394;2024-03-02T12:53:01;16.90;99.90
25328;DHT22;13279;51.300;12.394;2024-03-02T12:55:29;17.10;99.90
25328;DHT22;13279;51.300;12.394;2024-03-02T12:57:58;17.30;99.90
25328;DHT22;13279;51.300;12.394;2024-03-02T13:00:26;17.40;99.90
25328;DHT22;13279;51.300;12.394;2024-03-02T13:02:56;17.60;99.90
25328;DHT22;13279;51.300;12.394;2024-03-02T13:05:30;17.70;99.90
25328;DHT22;13279;51.300;12.394;2024-03-02T13:07:58;17.70;99.90
25328;DHT22;13279;51.300;12.394;2024-03-02T13:10:27;17.90;99.90
25328;DHT22;13279;51.300;12.394;2024-03-02T13:12:57;18.00;99.90
25328;DHT22;13279;51.300;12.394;2024-03-02T13:15:26;18.00;99.90
25328;DHT22;13279;51.300;12.394;2024-03-02T13:17:53;18.10;99.90
25328;DHT22;13279;51.300;12.394;2024-03-02T13:20:21;18.20;99.90
25328;DHT22;13279;51.300;12.394;2024-03-02T13:22:48;17.70;99.90
25328;DHT22;13279;51.300;12.394;2024-03-02T13:25:15;17.40;99.90
25328;DHT22;13279;51.300;12.394;2024-03-02T13:27:43;17.20;99.90
25328;DHT22;13279;51.300;12.394;2024-03-02T13:30:12;17.30;99.90
25328;DHT22;13279;51.300;12.394;2024-03-02T13:32:39;17.60;99.90
25328;DHT22;13279;51.300;12.394;2024-03-02T13:35:07;17.60;99.90
25328;DHT22;13279;51.300;12.394;2024-03-02T13:37:37;17.70;99.90
25328;DHT22;13279;51.300;12.394;2024-03-02T13:40:05;17.70;99.90
25328;DHT22;13279;51.300;12.394;2024-03-02T13:42:39;17.90;99.90
25328;DHT22;13279;51.300;12.394;2024-03-02T13:45:07;18.10;99.90
25328;DHT22;13279;51.300;12.394;2024-03-02T13:47:36;18.00;99.90
25328;DHT22;13279;51.300;12.394;2024-03-02T13:50:04;18.00;99.90
25328;DHT22;13279;51.300;12.394;2024-03-02T13:52:33;18.20;99.90
25328;DHT22;13279;51.300;12.394;2024-03-02T13:55:00;18.30;99.90
25328;DHT22;13279;51.300;12.394;2024-03-02T13:57:28;17.90;99.90
25328;DHT22;13279;51.300;12.394;2024-03-02T13:59:56;17.80;99.90
25328;DHT22;13279;51.300;12.394;2024-03-02T14:02:23;18.30;99.90
25328;DHT22;13279;51.300;12.394;2024-03-02T14:04:53;18.70;99.90
25328;DHT22;13279;51.300;12.394;2024-03-02T14:07:21;18.90;99.90
25328;DHT22;13279;51.300;12.394;2024-03-02T14:09:48;18.80;99.90
25328;DHT22;13279;51.300;12.394;2024-03-02T14:12:15;19.00;99.90
25328;DHT22;13279;51.300;12.394;2024-03-02T14:14:43;19.00;99.90
25328;DHT22;13279;51.300;12.394;2024-03-02T14:17:11;19.00;99.90
25328;DHT22;13279;51.300;12.394;2024-03-02T14:19:40;19.00;99.90
25328;DHT22;13279;51.300;12.394;2024-03-02T14:22:09;18.80;99.90
25328;DHT22;13279;51.300;12.394;2024-03-02T14:24:39;18.80;99.90
25328;DHT22;13279;51.300;12.394;2024-03-02T14:27:07;18.70;99.90
25328;DHT22;13279;51.300;12.394;2024-03-02T14:29:35;18.80;99.90
25328;DHT22;13279;51.300;12.394;2024-03-02T14:32:04;19.10;99.90
25328;DHT22;13279;51.300;12.394;2024-03-02T14:34:32;19.30;99.90
25328;DHT22;13279;51.300;12.394;2024-03-02T14:36:59;19.40;99.90
25328;DHT22;13279;51.300;12.394;2024-03-02T14:39:28;19.40;99.90
25328;DHT22;13279;51.300;12.394;2024-03-02T14:41:56;19.20;99.90
25328;DHT22;13279;51.300;12.394;2024-03-02T14:44:24;19.00;99.90
25328;DHT22;13279;51.300;12.394;2024-03-02T14:46:51;19.20;99.90
25328;DHT22;13279;51.300;12.394;2024-03-02T14:49:19;19.50;99.90
25328;DHT22;13279;51.300;12.394;2024-03-02T14:51:47;19.70;99.90
25328;DHT22;13279;51.300;12.394;2024-03-02T14:54:15;19.50;99.90
25328;DHT22;13279;51.300;12.394;2024-03-02T14:56:44;19.30;99.90
25328;DHT22;13279;51.300;12.394;2024-03-02T14:59:12;19.30;99.90
25328;DHT22;13279;51.300;12.394;2024-03-02T15:01:39;19.00;99.90
25328;DHT22;13279;51.300;12.394;2024-03-02T15:04:07;18.70;99.90
25328;DHT22;13279;51.300;12.394;2024-03-02T15:06:34;18.70;99.90
25328;DHT22;13279;51.300;12.394;2024-03-02T15:09:02;18.70;99.90
25328;DHT22;13279;51.300;12.394;2024-03-02T15:11:29;18.60;99.90
25328;DHT22;13279;51.300;12.394;2024-03-02T15:13:59;18.30;99.90
25328;DHT22;13279;51.300;12.394;2024-03-02T15:16:26;18.40;99.90
25328;DHT22;13279;51.300;12.394;2024-03-02T15:18:54;18.40;99.90
25328;DHT22;13279;51.300;12.394;2024-03-02T15:21:21;18.40;99.90
25328;DHT22;13279;51.300;12.394;2024-03-02T15:23:49;18.30;99.90
25328;DHT22;13279;51.300;12.394;2024-03-02T15:26:16;18.30;99.90
25328;DHT22;13279;51.300;12.394;2024-03-02T15:28:44;18.10;99.90
25328;DHT22;13279;51.300;12.394;2024-03-02T15:31:12;18.10;99.90
25328;DHT22;13279;51.300;12.394;2024-03-02T15:33:40;18.00;99.90